createdAt,value
2023-04-02T00:05:22.111Z,28.58
2023-04-02T00:16:37.019Z,28.65
2023-04-02T00:22:26.928Z,28.62
2023-04-02T00:36:42.199Z,28.84
2023-04-02T00:42:29.256Z,28.87
2023-04-02T00:48:33.125Z,28.79
2023-04-02T00:54:09.950Z,29.00
2023-04-02T01:00:04.200Z,29.11
2023-04-02T01:05:45.150Z,29.17
2023-04-02T01:11:02.973Z,29.34
2023-04-02T01:16:45.689Z,29.29
2023-04-02T01:27:13.623Z,29.31
2023-04-02T01:33:00.789Z,29.22
2023-04-02T01:38:16.426Z,29.26
2023-04-02T01:44:03.829Z,29.46
2023-04-02T01:49:46.301Z,29.41
2023-04-02T01:55:33.940Z,29.45
2023-04-02T02:01:16.384Z,29.64
2023-04-02T02:07:35.992Z,29.71
2023-04-02T02:11:51.995Z,29.77
2023-04-02T02:17:04.344Z,30.04
2023-04-02T02:22:37.116Z,30.21
2023-04-02T02:28:00.892Z,30.27
2023-04-02T02:33:19.004Z,30.51
2023-04-02T02:38:21.300Z,30.96
2023-04-02T02:43:28.746Z,31.25
2023-04-02T02:48:36.339Z,31.39
2023-04-02T02:53:44.273Z,31.56
2023-04-02T02:59:06.710Z,31.94
2023-04-02T03:04:14.134Z,32.26
2023-04-02T03:09:21.416Z,31.79
2023-04-02T03:14:28.744Z,32.22
2023-04-02T03:19:35.994Z,32.51
2023-04-02T03:24:43.133Z,32.58
2023-04-02T03:29:50.320Z,32.50
2023-04-02T03:34:57.580Z,32.43
2023-04-02T03:40:04.995Z,32.54
2023-04-02T03:45:12.159Z,32.60
2023-04-02T03:50:19.375Z,32.64
2023-04-02T03:55:26.535Z,32.68
2023-04-02T04:00:33.730Z,32.82
2023-04-02T04:05:40.934Z,32.82
2023-04-02T04:10:48.305Z,32.93
2023-04-02T04:15:55.472Z,32.96
2023-04-02T04:21:02.686Z,32.94
2023-04-02T04:26:09.899Z,32.90
2023-04-02T04:31:17.030Z,33.04
2023-04-02T04:36:24.231Z,33.21
2023-04-02T04:41:31.400Z,33.09
2023-04-02T04:46:38.603Z,33.14
2023-04-02T04:51:45.798Z,33.25
2023-04-02T04:56:52.959Z,33.16
2023-04-02T05:02:00.147Z,33.15
2023-04-02T05:07:07.356Z,33.19
2023-04-02T05:12:14.554Z,33.03
2023-04-02T05:17:21.857Z,33.27
2023-04-02T05:22:28.994Z,33.29
2023-04-02T05:27:36.150Z,33.36
2023-04-02T05:32:43.395Z,33.52
2023-04-02T05:37:50.589Z,33.47
2023-04-02T05:42:57.824Z,33.45
2023-04-02T05:48:05.037Z,33.46
2023-04-02T05:53:12.311Z,33.44
2023-04-02T05:58:34.474Z,33.32
2023-04-02T06:03:26.855Z,33.17
2023-04-02T06:08:34.083Z,32.97
2023-04-02T06:13:41.247Z,32.98
2023-04-02T06:18:48.632Z,33.02
2023-04-02T06:23:55.852Z,32.95
2023-04-02T06:29:03.105Z,33.05
2023-04-02T06:34:10.285Z,33.16
2023-04-02T06:39:17.518Z,33.17
2023-04-02T06:44:24.803Z,33.26
2023-04-02T06:49:32.062Z,33.32
2023-04-02T06:54:39.422Z,34.69
2023-04-02T06:59:46.785Z,34.14
2023-04-02T07:04:54.308Z,33.58
2023-04-02T07:10:01.697Z,33.56
2023-04-02T07:15:09.014Z,33.69
2023-04-02T07:20:16.489Z,33.62
2023-04-02T07:25:23.797Z,33.57
2023-04-02T07:30:31.056Z,33.69
2023-04-02T07:35:38.686Z,33.84
2023-04-02T07:40:45.887Z,33.89
2023-04-02T07:45:53.173Z,33.95
2023-04-02T07:51:00.466Z,33.57
2023-04-02T07:56:07.829Z,33.67
2023-04-02T08:01:15.251Z,33.63
2023-04-02T08:06:22.555Z,33.72
2023-04-02T08:11:31.800Z,33.29
2023-04-02T08:16:37.172Z,33.34
2023-04-02T08:21:44.533Z,33.38
2023-04-02T08:26:51.977Z,33.59
2023-04-02T08:31:59.166Z,33.54
2023-04-02T08:37:06.418Z,33.15
2023-04-02T08:42:13.724Z,32.84
2023-04-02T08:47:20.911Z,32.86
2023-04-02T08:52:28.248Z,33.04
2023-04-02T08:57:35.624Z,33.18
2023-04-02T09:02:42.766Z,32.99
2023-04-02T09:07:50.014Z,34.14
2023-04-02T09:12:57.593Z,34.48
2023-04-02T09:18:04.871Z,33.60
2023-04-02T09:23:12.097Z,33.78
2023-04-02T09:28:19.442Z,33.80
2023-04-02T09:33:26.723Z,33.57
2023-04-02T09:38:34.119Z,33.50
2023-04-02T09:43:41.545Z,33.40
2023-04-02T09:48:48.853Z,33.01
2023-04-02T09:53:56.115Z,33.02
2023-04-02T09:59:03.540Z,32.35
2023-04-02T10:04:10.816Z,32.81
2023-04-02T10:09:18.098Z,32.84
2023-04-02T10:14:25.415Z,32.57
2023-04-02T10:19:32.849Z,32.77
2023-04-02T10:25:16.042Z,34.68
2023-04-02T10:30:38.775Z,34.81
2023-04-02T10:35:47.775Z,34.69
2023-04-02T10:41:00.031Z,34.43
2023-04-02T10:46:14.483Z,35.41
2023-04-02T10:51:22.002Z,34.72
2023-04-02T10:56:33.150Z,34.88
2023-04-02T11:01:37.175Z,34.35
2023-04-02T11:07:11.133Z,34.04
2023-04-02T11:12:06.970Z,34.30
2023-04-02T11:17:19.099Z,33.90
2023-04-02T11:22:26.404Z,32.97
2023-04-02T11:27:33.674Z,32.61
2023-04-02T11:32:41.083Z,32.42
2023-04-02T11:37:48.138Z,31.83
2023-04-02T11:42:55.450Z,31.85
2023-04-02T11:48:02.767Z,31.76
2023-04-02T11:53:09.925Z,32.13
2023-04-02T11:58:17.118Z,31.94
2023-04-02T12:03:24.371Z,31.84
2023-04-02T12:08:31.594Z,31.76
2023-04-02T12:13:38.809Z,31.53
2023-04-02T12:18:46.004Z,31.43
2023-04-02T12:23:53.193Z,31.67
2023-04-02T12:29:00.462Z,31.78
2023-04-02T12:34:09.551Z,31.89
2023-04-02T12:39:16.760Z,31.42
2023-04-02T12:44:24.027Z,31.58
2023-04-02T12:49:31.319Z,31.45
2023-04-02T12:54:38.486Z,31.27
2023-04-02T12:59:45.657Z,31.38
2023-04-02T13:04:52.892Z,31.05
2023-04-02T13:10:00.138Z,31.48
2023-04-02T13:15:07.302Z,31.17
2023-04-02T13:20:14.541Z,31.09
2023-04-02T13:25:21.934Z,30.82
2023-04-02T13:30:29.166Z,31.19
2023-04-02T13:35:36.399Z,31.42
2023-04-02T13:40:43.546Z,30.90
2023-04-02T13:45:50.805Z,31.37
2023-04-02T13:50:57.946Z,30.87
2023-04-02T13:56:05.091Z,30.80
2023-04-02T14:01:12.391Z,31.20
2023-04-02T14:06:19.599Z,30.99
2023-04-02T14:11:26.750Z,30.92
2023-04-02T14:16:34.020Z,30.90
2023-04-02T14:21:41.155Z,30.74
2023-04-02T14:26:48.348Z,30.90
2023-04-02T14:31:55.590Z,30.94
2023-04-02T14:37:02.859Z,30.70
2023-04-02T14:42:10.507Z,30.62
2023-04-02T14:47:17.766Z,30.90
2023-04-02T14:52:25.250Z,30.64
2023-04-02T14:57:32.853Z,30.61
2023-04-02T15:02:40.106Z,30.67
2023-04-02T15:07:47.301Z,30.65
2023-04-02T15:12:54.472Z,30.85
2023-04-02T15:18:01.786Z,30.72
2023-04-02T15:23:09.290Z,30.98
2023-04-02T15:28:17.077Z,30.98
2023-04-02T15:33:24.602Z,30.94
2023-04-02T15:38:32.247Z,30.96
2023-04-02T15:43:39.955Z,30.83
2023-04-02T15:48:47.311Z,30.71
2023-04-02T15:53:55.060Z,30.53
2023-04-02T15:59:02.317Z,28.94
2023-04-02T16:04:09.464Z,29.67
2023-04-02T16:09:16.903Z,29.59
2023-04-02T16:14:24.390Z,29.46
2023-04-02T16:19:31.792Z,30.05
2023-04-02T16:24:39.241Z,29.42
2023-04-02T16:29:53.918Z,28.93
2023-04-02T16:34:57.632Z,30.05
2023-04-02T16:40:02.488Z,28.91
2023-04-02T16:45:09.974Z,29.33
2023-04-02T16:50:17.522Z,28.73
2023-04-02T16:55:25.230Z,28.35
2023-04-02T17:00:32.920Z,28.37
2023-04-02T17:05:40.172Z,28.88
2023-04-02T17:10:47.664Z,28.94
2023-04-02T17:15:55.401Z,28.76
2023-04-02T17:21:02.973Z,28.52
2023-04-02T17:26:10.614Z,27.52
2023-04-02T17:31:18.265Z,28.47
2023-04-02T17:36:25.611Z,28.50
2023-04-02T17:41:33.090Z,27.98
2023-04-02T17:46:40.428Z,28.61
2023-04-02T17:51:47.945Z,28.29
2023-04-02T17:56:55.697Z,28.58
2023-04-02T18:02:03.363Z,28.96
2023-04-02T18:07:12.024Z,29.08
2023-04-02T18:12:19.758Z,29.26
2023-04-02T18:17:27.478Z,29.54
2023-04-02T18:22:35.070Z,29.13
2023-04-02T18:27:42.765Z,29.33
2023-04-02T18:32:50.502Z,29.25
2023-04-02T18:37:58.011Z,28.56
2023-04-02T18:43:05.959Z,29.27
2023-04-02T18:48:13.665Z,29.02
2023-04-02T18:53:22.497Z,28.94
2023-04-02T18:58:30.226Z,28.72
2023-04-02T19:03:38.011Z,28.36
2023-04-02T19:08:46.539Z,28.90
2023-04-02T19:13:53.276Z,29.04
2023-04-02T19:19:00.968Z,29.09
2023-04-02T19:24:08.593Z,28.96
2023-04-02T19:29:16.239Z,29.23
2023-04-02T19:34:23.820Z,29.47
2023-04-02T19:39:31.448Z,29.17
2023-04-02T19:44:38.782Z,29.11
2023-04-02T19:49:46.346Z,28.56
2023-04-02T19:54:54.074Z,28.93
2023-04-02T20:00:01.806Z,28.83
2023-04-02T20:05:09.506Z,28.91
2023-04-02T20:10:17.317Z,28.85
2023-04-02T20:15:24.740Z,29.01
2023-04-02T20:20:32.142Z,28.90
2023-04-02T20:25:40.696Z,28.93
2023-04-02T20:30:48.365Z,28.99
2023-04-02T20:35:55.549Z,29.14
2023-04-02T20:41:02.756Z,29.11
2023-04-02T20:46:12.175Z,28.86
2023-04-02T20:51:18.449Z,28.89
2023-04-02T20:56:25.737Z,28.99
2023-04-02T21:01:33.058Z,29.07
2023-04-02T21:06:40.169Z,29.09
2023-04-02T21:11:47.470Z,29.08
2023-04-02T21:16:54.754Z,29.03
2023-04-02T21:22:01.918Z,28.97
2023-04-02T21:27:09.210Z,28.76
2023-04-02T21:32:21.700Z,28.88
2023-04-02T21:37:23.666Z,29.43
2023-04-02T21:42:30.842Z,29.55
2023-04-02T21:47:38.077Z,30.47
2023-04-02T21:52:45.229Z,30.83
2023-04-02T21:57:52.396Z,31.00
2023-04-02T22:02:59.817Z,30.36
2023-04-02T22:08:06.959Z,30.03
2023-04-02T22:13:14.242Z,30.37
2023-04-02T22:18:21.464Z,31.11
2023-04-02T22:23:32.587Z,31.23
2023-04-02T22:28:37.641Z,30.66
2023-04-02T22:34:20.276Z,30.41
2023-04-02T22:39:28.346Z,30.54
2023-04-02T22:45:22.132Z,30.67
2023-04-02T22:50:27.018Z,31.52
2023-04-02T22:55:34.397Z,31.89
2023-04-02T23:00:53.302Z,31.09
2023-04-02T23:06:14.972Z,32.10
2023-04-02T23:11:06.247Z,32.59
2023-04-02T23:16:24.040Z,31.84
2023-04-02T23:21:21.676Z,31.27
2023-04-02T23:26:28.981Z,30.91
2023-04-02T23:31:36.335Z,31.29
2023-04-02T23:36:43.629Z,31.42
2023-04-02T23:41:51.123Z,30.83
2023-04-02T23:46:58.710Z,30.95
2023-04-02T23:52:06.125Z,30.82
2023-04-02T23:57:13.480Z,30.85
